sensor_id;sensor_type;location;lat;lon;timestamp;pressure;altitude;pressure_sealevel;temperature;humidity
43741;BME280;29352;48.708;9.290;2022-10-16T00:00:34;97707.91;;;8.30;91.53
43741;BME280;29352;48.708;9.290;2022-10-16T00:03:02;97702.81;;;7.89;92.68
43741;BME280;29352;48.708;9.290;2022-10-16T00:05:28;97715.91;;;8.03;93.29
43741;BME280;29352;48.708;9.290;2022-10-16T00:07:54;97718.53;;;8.57;90.42
43741;BME280;29352;48.708;9.290;2022-10-16T00:10:20;97713.97;;;8.84;88.98
43741;BME280;29352;48.708;9.290;2022-10-16T00:12:45;97711.94;;;8.66;89.38
43741;BME280;29352;48.708;9.290;2022-10-16T00:15:12;97703.59;;;8.36;90.82
43741;BME280;29352;48.708;9.290;2022-10-16T00:17:37;97712.34;;;8.69;88.99
43741;BME280;29352;48.708;9.290;2022-10-16T00:20:03;97714.44;;;8.47;89.46
43741;BME280;29352;48.708;9.290;2022-10-16T00:22:28;97719.59;;;8.29;90.21
43741;BME280;29352;48.708;9.290;2022-10-16T00:24:54;97722.66;;;8.13;90.39
43741;BME280;29352;48.708;9.290;2022-10-16T00:27:19;97718.56;;;8.03;90.97
43741;BME280;29352;48.708;9.290;2022-10-16T00:29:48;97718.53;;;7.90;91.03
43741;BME280;29352;48.708;9.290;2022-10-16T00:32:15;97729.59;;;7.80;91.74
43741;BME280;29352;48.708;9.290;2022-10-16T00:34:40;97717.13;;;7.81;91.65
43741;BME280;29352;48.708;9.290;2022-10-16T00:37:06;97722.03;;;7.84;91.28
43741;BME280;29352;48.708;9.290;2022-10-16T00:39:31;97727.31;;;7.71;91.82
43741;BME280;29352;48.708;9.290;2022-10-16T00:41:56;97728.09;;;7.65;92.35
43741;BME280;29352;48.708;9.290;2022-10-16T00:45:00;97720.38;;;7.76;91.66
43741;BME280;29352;48.708;9.290;2022-10-16T00:47:34;97719.31;;;7.71;93.19
43741;BME280;29352;48.708;9.290;2022-10-16T00:50:13;97719.19;;;8.12;90.56
43741;BME280;29352;48.708;9.290;2022-10-16T00:52:52;97716.50;;;8.32;89.59
43741;BME280;29352;48.708;9.290;2022-10-16T00:55:19;97721.38;;;7.75;91.64
43741;BME280;29352;48.708;9.290;2022-10-16T00:57:47;97718.50;;;7.57;93.23
43741;BME280;29352;48.708;9.290;2022-10-16T01:00:20;97713.34;;;7.49;92.15
43741;BME280;29352;48.708;9.290;2022-10-16T01:02:56;97710.31;;;7.58;93.48
43741;BME280;29352;48.708;9.290;2022-10-16T01:05:31;97713.34;;;7.49;92.15
43741;BME280;29352;48.708;9.290;2022-10-16T01:08:25;97723.94;;;7.42;92.21
43741;BME280;29352;48.708;9.290;2022-10-16T01:11:08;97723.75;;;7.37;93.30
43741;BME280;29352;48.708;9.290;2022-10-16T01:13:48;97726.44;;;7.50;93.36
43741;BME280;29352;48.708;9.290;2022-10-16T01:16:31;97734.81;;;7.47;93.44
43741;BME280;29352;48.708;9.290;2022-10-16T01:19:08;97737.66;;;7.46;93.54
43741;BME280;29352;48.708;9.290;2022-10-16T01:21:47;97740.75;;;7.63;93.10
43741;BME280;29352;48.708;9.290;2022-10-16T01:24:46;97739.03;;;7.28;95.26
43741;BME280;29352;48.708;9.290;2022-10-16T01:27:23;97746.34;;;7.20;96.14
43741;BME280;29352;48.708;9.290;2022-10-16T01:35:23;97733.78;;;6.87;93.92
43741;BME280;29352;48.708;9.290;2022-10-16T01:38:01;97739.34;;;7.05;94.51
43741;BME280;29352;48.708;9.290;2022-10-16T01:40:36;97745.44;;;6.64;97.13
43741;BME280;29352;48.708;9.290;2022-10-16T01:43:32;97740.25;;;6.78;95.55
43741;BME280;29352;48.708;9.290;2022-10-16T01:46:01;97727.38;;;7.23;94.72
43741;BME280;29352;48.708;9.290;2022-10-16T01:48:29;97724.16;;;7.41;92.37
43741;BME280;29352;48.708;9.290;2022-10-16T01:51:17;97713.56;;;7.54;91.76
43741;BME280;29352;48.708;9.290;2022-10-16T01:53:53;97714.81;;;7.65;91.75
43741;BME280;29352;48.708;9.290;2022-10-16T01:56:25;97717.19;;;7.33;92.42
43741;BME280;29352;48.708;9.290;2022-10-16T01:59:06;97720.72;;;6.92;93.75
43741;BME280;29352;48.708;9.290;2022-10-16T02:01:42;97728.72;;;6.99;95.54
43741;BME280;29352;48.708;9.290;2022-10-16T02:04:33;97713.03;;;7.10;95.87
43741;BME280;29352;48.708;9.290;2022-10-16T02:07:03;97709.25;;;6.85;97.82
43741;BME280;29352;48.708;9.290;2022-10-16T02:09:33;97713.31;;;6.81;96.55
43741;BME280;29352;48.708;9.290;2022-10-16T02:12:06;97714.53;;;7.26;95.04
43741;BME280;29352;48.708;9.290;2022-10-16T02:14:53;97714.75;;;7.38;94.95
43741;BME280;29352;48.708;9.290;2022-10-16T02:17:20;97718.63;;;7.42;95.24
43741;BME280;29352;48.708;9.290;2022-10-16T02:19:48;97714.72;;;7.25;94.28
43741;BME280;29352;48.708;9.290;2022-10-16T02:25:17;97733.13;;;7.33;94.14
43741;BME280;29352;48.708;9.290;2022-10-16T02:33:42;97723.75;;;7.37;93.34
43741;BME280;29352;48.708;9.290;2022-10-16T02:36:11;97734.66;;;7.07;94.23
43741;BME280;29352;48.708;9.290;2022-10-16T02:38:40;97717.19;;;7.26;93.06
43741;BME280;29352;48.708;9.290;2022-10-16T02:41:07;97712.97;;;7.58;92.39
43741;BME280;29352;48.708;9.290;2022-10-16T02:43:33;97704.53;;;7.35;92.43
43741;BME280;29352;48.708;9.290;2022-10-16T02:45:59;97704.50;;;7.15;94.97
43741;BME280;29352;48.708;9.290;2022-10-16T02:48:25;97710.94;;;6.99;96.00
43741;BME280;29352;48.708;9.290;2022-10-16T02:50:51;97713.41;;;7.07;96.09
43741;BME280;29352;48.708;9.290;2022-10-16T02:53:16;97724.03;;;7.07;95.91
43741;BME280;29352;48.708;9.290;2022-10-16T02:55:42;97727.31;;;7.09;96.20
43741;BME280;29352;48.708;9.290;2022-10-16T02:58:07;97730.22;;;7.21;95.46
43741;BME280;29352;48.708;9.290;2022-10-16T03:00:33;97734.91;;;7.13;96.27
43741;BME280;29352;48.708;9.290;2022-10-16T03:02:58;97736.50;;;7.07;96.38
43741;BME280;29352;48.708;9.290;2022-10-16T03:05:24;97733.88;;;7.14;96.14
43741;BME280;29352;48.708;9.290;2022-10-16T03:07:49;97738.72;;;7.03;96.33
43741;BME280;29352;48.708;9.290;2022-10-16T03:10:14;97735.91;;;7.11;95.50
43741;BME280;29352;48.708;9.290;2022-10-16T03:12:40;97735.94;;;7.18;95.56
43741;BME280;29352;48.708;9.290;2022-10-16T03:15:06;97733.06;;;7.13;95.45
43741;BME280;29352;48.708;9.290;2022-10-16T03:17:32;97729.81;;;7.24;95.14
43741;BME280;29352;48.708;9.290;2022-10-16T03:19:58;97727.78;;;7.20;96.39
43741;BME280;29352;48.708;9.290;2022-10-16T03:22:23;97733.19;;;6.98;97.87
43741;BME280;29352;48.708;9.290;2022-10-16T03:24:49;97729.44;;;7.34;96.49
43741;BME280;29352;48.708;9.290;2022-10-16T03:27:14;97729.06;;;7.37;96.52
43741;BME280;29352;48.708;9.290;2022-10-16T03:29:40;97727.97;;;7.11;96.98
43741;BME280;29352;48.708;9.290;2022-10-16T03:32:05;97726.19;;;7.32;95.02
43741;BME280;29352;48.708;9.290;2022-10-16T03:34:30;97740.84;;;7.21;94.96
43741;BME280;29352;48.708;9.290;2022-10-16T03:36:56;97735.78;;;6.85;97.70
43741;BME280;29352;48.708;9.290;2022-10-16T03:39:21;97729.41;;;6.79;97.63
43741;BME280;29352;48.708;9.290;2022-10-16T03:41:47;97735.00;;;6.91;96.37
43741;BME280;29352;48.708;9.290;2022-10-16T03:44:13;97734.84;;;6.99;95.98
43741;BME280;29352;48.708;9.290;2022-10-16T03:46:38;97744.72;;;6.77;97.42
43741;BME280;29352;48.708;9.290;2022-10-16T03:49:03;97742.19;;;6.69;97.55
43741;BME280;29352;48.708;9.290;2022-10-16T03:51:29;97740.50;;;6.90;96.17
43741;BME280;29352;48.708;9.290;2022-10-16T03:53:54;97741.38;;;6.69;96.29
43741;BME280;29352;48.708;9.290;2022-10-16T03:56:20;97738.22;;;6.86;95.67
43741;BME280;29352;48.708;9.290;2022-10-16T03:58:45;97747.56;;;6.76;96.73
43741;BME280;29352;48.708;9.290;2022-10-16T04:01:11;97749.97;;;6.71;96.85
43741;BME280;29352;48.708;9.290;2022-10-16T04:03:36;97752.31;;;6.52;97.41
43741;BME280;29352;48.708;9.290;2022-10-16T04:06:01;97758.03;;;6.56;97.16
43741;BME280;29352;48.708;9.290;2022-10-16T04:08:27;97753.13;;;6.81;97.15
43741;BME280;29352;48.708;9.290;2022-10-16T04:10:52;97749.88;;;6.57;96.27
43741;BME280;29352;48.708;9.290;2022-10-16T04:13:18;97752.38;;;6.65;96.61
43741;BME280;29352;48.708;9.290;2022-10-16T04:15:45;97743.88;;;6.42;98.54
43741;BME280;29352;48.708;9.290;2022-10-16T04:18:10;97736.53;;;6.44;96.20
43741;BME280;29352;48.708;9.290;2022-10-16T04:20:36;97740.97;;;6.72;96.22
43741;BME280;29352;48.708;9.290;2022-10-16T04:23:02;97752.25;;;6.46;96.62
43741;BME280;29352;48.708;9.290;2022-10-16T04:25:27;97748.81;;;6.24;98.30
43741;BME280;29352;48.708;9.290;2022-10-16T04:27:53;97754.56;;;6.27;98.95
43741;BME280;29352;48.708;9.290;2022-10-16T04:30:20;97750.22;;;6.48;98.45
43741;BME280;29352;48.708;9.290;2022-10-16T04:32:50;97753.19;;;6.38;97.59
43741;BME280;29352;48.708;9.290;2022-10-16T04:35:18;97760.06;;;6.54;97.18
43741;BME280;29352;48.708;9.290;2022-10-16T04:37:44;97751.66;;;6.50;95.76
43741;BME280;29352;48.708;9.290;2022-10-16T04:40:10;97749.13;;;6.35;96.37
43741;BME280;29352;48.708;9.290;2022-10-16T04:42:36;97747.22;;;6.85;95.64
43741;BME280;29352;48.708;9.290;2022-10-16T04:45:02;97743.03;;;7.11;94.89
43741;BME280;29352;48.708;9.290;2022-10-16T04:47:28;97748.13;;;6.71;97.77
43741;BME280;29352;48.708;9.290;2022-10-16T04:49:53;97758.25;;;6.89;96.15
43741;BME280;29352;48.708;9.290;2022-10-16T04:52:19;97760.19;;;7.08;97.55
43741;BME280;29352;48.708;9.290;2022-10-16T04:54:46;97763.47;;;6.76;97.21
43741;BME280;29352;48.708;9.290;2022-10-16T04:57:12;97762.66;;;6.75;96.16
43741;BME280;29352;48.708;9.290;2022-10-16T04:59:37;97770.72;;;6.60;97.06
43741;BME280;29352;48.708;9.290;2022-10-16T05:02:03;97770.94;;;6.65;96.35
43741;BME280;29352;48.708;9.290;2022-10-16T05:04:28;97768.00;;;6.54;96.87
43741;BME280;29352;48.708;9.290;2022-10-16T05:06:54;97774.72;;;6.50;97.37
43741;BME280;29352;48.708;9.290;2022-10-16T05:09:19;97779.25;;;6.56;95.49
43741;BME280;29352;48.708;9.290;2022-10-16T05:11:45;97779.59;;;6.46;96.71
43741;BME280;29352;48.708;9.290;2022-10-16T05:14:11;97787.16;;;6.28;96.65
43741;BME280;29352;48.708;9.290;2022-10-16T05:16:36;97791.72;;;6.34;96.16
43741;BME280;29352;48.708;9.290;2022-10-16T05:19:02;97795.88;;;6.43;97.13
43741;BME280;29352;48.708;9.290;2022-10-16T05:21:27;97784.81;;;6.68;95.65
43741;BME280;29352;48.708;9.290;2022-10-16T05:23:53;97789.81;;;6.49;95.67
43741;BME280;29352;48.708;9.290;2022-10-16T05:26:20;97781.38;;;6.39;96.05
43741;BME280;29352;48.708;9.290;2022-10-16T05:28:45;97784.06;;;6.46;96.61
43741;BME280;29352;48.708;9.290;2022-10-16T05:31:11;97774.88;;;7.04;94.03
43741;BME280;29352;48.708;9.290;2022-10-16T05:33:37;97777.53;;;7.11;93.07
43741;BME280;29352;48.708;9.290;2022-10-16T05:36:08;97775.03;;;6.68;93.87
43741;BME280;29352;48.708;9.290;2022-10-16T05:38:35;97782.41;;;6.45;94.43
43741;BME280;29352;48.708;9.290;2022-10-16T05:41:03;97780.38;;;6.19;96.14
43741;BME280;29352;48.708;9.290;2022-10-16T05:43:31;97787.56;;;6.25;95.13
43741;BME280;29352;48.708;9.290;2022-10-16T05:46:04;97795.31;;;6.26;96.56
43741;BME280;29352;48.708;9.290;2022-10-16T05:48:31;97796.81;;;6.07;96.21
43741;BME280;29352;48.708;9.290;2022-10-16T05:51:03;97800.81;;;6.03;97.21
43741;BME280;29352;48.708;9.290;2022-10-16T05:53:35;97789.59;;;6.23;95.74
43741;BME280;29352;48.708;9.290;2022-10-16T05:56:03;97794.44;;;6.19;96.07
43741;BME280;29352;48.708;9.290;2022-10-16T05:58:33;97799.38;;;6.50;95.72
43741;BME280;29352;48.708;9.290;2022-10-16T06:01:03;97797.94;;;6.48;95.27
43741;BME280;29352;48.708;9.290;2022-10-16T06:03:30;97796.97;;;6.77;93.89
43741;BME280;29352;48.708;9.290;2022-10-16T06:05:56;97803.97;;;6.63;94.53
43741;BME280;29352;48.708;9.290;2022-10-16T06:08:23;97807.41;;;6.57;94.43
43741;BME280;29352;48.708;9.290;2022-10-16T06:10:49;97803.56;;;6.87;92.11
43741;BME280;29352;48.708;9.290;2022-10-16T06:13:26;97812.41;;;6.73;93.71
43741;BME280;29352;48.708;9.290;2022-10-16T06:15:51;97818.97;;;6.49;93.87
43741;BME280;29352;48.708;9.290;2022-10-16T06:18:16;97825.03;;;6.71;94.20
43741;BME280;29352;48.708;9.290;2022-10-16T06:20:42;97826.38;;;6.82;93.64
43741;BME280;29352;48.708;9.290;2022-10-16T06:23:07;97820.97;;;7.45;92.02
43741;BME280;29352;48.708;9.290;2022-10-16T06:25:33;97820.38;;;9.04;87.12
43741;BME280;29352;48.708;9.290;2022-10-16T06:27:59;97825.38;;;9.90;83.06
43741;BME280;29352;48.708;9.290;2022-10-16T06:30:24;97831.84;;;9.69;82.52
43741;BME280;29352;48.708;9.290;2022-10-16T06:32:50;97834.97;;;8.81;86.40
43741;BME280;29352;48.708;9.290;2022-10-16T06:35:15;97832.31;;;8.74;87.22
43741;BME280;29352;48.708;9.290;2022-10-16T06:37:40;97839.41;;;8.27;87.53
43741;BME280;29352;48.708;9.290;2022-10-16T06:40:06;97838.81;;;8.52;87.69
43741;BME280;29352;48.708;9.290;2022-10-16T06:42:32;97836.69;;;7.81;89.63
43741;BME280;29352;48.708;9.290;2022-10-16T06:44:57;97834.22;;;7.86;90.09
43741;BME280;29352;48.708;9.290;2022-10-16T06:47:23;97837.59;;;8.41;88.90
43741;BME280;29352;48.708;9.290;2022-10-16T06:49:48;97848.63;;;9.05;87.39
43741;BME280;29352;48.708;9.290;2022-10-16T06:52:14;97846.25;;;10.00;82.93
43741;BME280;29352;48.708;9.290;2022-10-16T06:54:39;97848.19;;;11.18;80.36
43741;BME280;29352;48.708;9.290;2022-10-16T06:57:04;97838.69;;;11.77;78.64
43741;BME280;29352;48.708;9.290;2022-10-16T06:59:30;97846.03;;;11.26;78.74
43741;BME280;29352;48.708;9.290;2022-10-16T07:01:55;97855.06;;;11.50;78.36
43741;BME280;29352;48.708;9.290;2022-10-16T07:04:21;97855.72;;;11.02;79.17
43741;BME280;29352;48.708;9.290;2022-10-16T07:06:46;97872.81;;;10.76;79.89
43741;BME280;29352;48.708;9.290;2022-10-16T07:09:12;97870.59;;;10.41;80.58
43741;BME280;29352;48.708;9.290;2022-10-16T07:11:39;97874.53;;;10.01;82.97
43741;BME280;29352;48.708;9.290;2022-10-16T07:14:18;97874.09;;;9.52;83.96
43741;BME280;29352;48.708;9.290;2022-10-16T07:16:46;97884.63;;;9.20;86.22
43741;BME280;29352;48.708;9.290;2022-10-16T07:19:12;97885.03;;;9.37;84.98
43741;BME280;29352;48.708;9.290;2022-10-16T07:21:41;97886.75;;;8.72;88.84
43741;BME280;29352;48.708;9.290;2022-10-16T07:24:12;97892.25;;;8.84;88.26
43741;BME280;29352;48.708;9.290;2022-10-16T07:26:39;97891.66;;;8.88;88.63
43741;BME280;29352;48.708;9.290;2022-10-16T07:29:18;97903.25;;;9.40;86.98
43741;BME280;29352;48.708;9.290;2022-10-16T07:31:47;97905.69;;;8.42;90.53
43741;BME280;29352;48.708;9.290;2022-10-16T07:34:15;97913.94;;;8.61;90.51
43741;BME280;29352;48.708;9.290;2022-10-16T07:36:41;97908.63;;;8.81;89.91
43741;BME280;29352;48.708;9.290;2022-10-16T07:39:07;97915.78;;;9.07;88.76
43741;BME280;29352;48.708;9.290;2022-10-16T07:41:33;97920.06;;;9.21;88.25
43741;BME280;29352;48.708;9.290;2022-10-16T07:44:01;97926.03;;;9.10;88.87
43741;BME280;29352;48.708;9.290;2022-10-16T07:46:28;97914.97;;;9.06;88.95
43741;BME280;29352;48.708;9.290;2022-10-16T07:48:54;97933.84;;;8.91;89.03
43741;BME280;29352;48.708;9.290;2022-10-16T07:51:22;97930.53;;;9.03;88.73
43741;BME280;29352;48.708;9.290;2022-10-16T07:53:49;97924.41;;;8.82;90.08
43741;BME280;29352;48.708;9.290;2022-10-16T07:56:17;97928.44;;;8.65;90.73
43741;BME280;29352;48.708;9.290;2022-10-16T07:58:43;97930.53;;;9.09;89.67
43741;BME280;29352;48.708;9.290;2022-10-16T08:01:12;97929.72;;;9.09;89.46
43741;BME280;29352;48.708;9.290;2022-10-16T08:03:45;97930.72;;;9.34;88.52
43741;BME280;29352;48.708;9.290;2022-10-16T08:06:12;97931.94;;;9.38;88.64
43741;BME280;29352;48.708;9.290;2022-10-16T08:08:37;97935.81;;;9.42;88.60
43741;BME280;29352;48.708;9.290;2022-10-16T08:11:04;97940.06;;;9.57;87.41
43741;BME280;29352;48.708;9.290;2022-10-16T08:13:30;97939.59;;;9.93;86.42
43741;BME280;29352;48.708;9.290;2022-10-16T08:15:56;97941.50;;;9.59;87.34
43741;BME280;29352;48.708;9.290;2022-10-16T08:18:22;97941.53;;;9.39;88.55
43741;BME280;29352;48.708;9.290;2022-10-16T08:20:47;97943.63;;;9.37;88.75
43741;BME280;29352;48.708;9.290;2022-10-16T08:23:13;97939.66;;;9.60;88.68
43741;BME280;29352;48.708;9.290;2022-10-16T08:25:40;97942.16;;;9.41;89.20
43741;BME280;29352;48.708;9.290;2022-10-16T08:28:08;97951.16;;;9.54;89.17
43741;BME280;29352;48.708;9.290;2022-10-16T08:30:35;97951.38;;;9.32;89.94
43741;BME280;29352;48.708;9.290;2022-10-16T08:33:03;97955.91;;;9.32;89.20
43741;BME280;29352;48.708;9.290;2022-10-16T08:35:28;97955.53;;;10.06;87.06
43741;BME280;29352;48.708;9.290;2022-10-16T08:37:54;97959.56;;;11.17;83.51
43741;BME280;29352;48.708;9.290;2022-10-16T08:40:24;97954.47;;;11.09;82.77
43741;BME280;29352;48.708;9.290;2022-10-16T08:46:13;97965.72;;;11.43;81.54
43741;BME280;29352;48.708;9.290;2022-10-16T08:48:49;97965.44;;;11.51;81.00
43741;BME280;29352;48.708;9.290;2022-10-16T08:51:29;97965.50;;;11.19;81.97
43741;BME280;29352;48.708;9.290;2022-10-16T08:54:10;97968.88;;;11.33;82.22
43741;BME280;29352;48.708;9.290;2022-10-16T08:56:46;97960.03;;;11.32;80.43
43741;BME280;29352;48.708;9.290;2022-10-16T08:59:20;97962.00;;;10.94;82.77
43741;BME280;29352;48.708;9.290;2022-10-16T09:01:47;97967.84;;;11.59;80.43
43741;BME280;29352;48.708;9.290;2022-10-16T09:04:46;97983.31;;;11.00;83.96
43741;BME280;29352;48.708;9.290;2022-10-16T09:07:53;97993.44;;;10.92;84.18
43741;BME280;29352;48.708;9.290;2022-10-16T09:10:57;97991.50;;;11.30;83.49
43741;BME280;29352;48.708;9.290;2022-10-16T09:16:30;97989.50;;;12.06;81.21
43741;BME280;29352;48.708;9.290;2022-10-16T09:19:33;97983.66;;;12.16;79.89
43741;BME280;29352;48.708;9.290;2022-10-16T09:22:17;97980.69;;;12.05;79.41
43741;BME280;29352;48.708;9.290;2022-10-16T09:24:45;97978.28;;;11.42;82.95
43741;BME280;29352;48.708;9.290;2022-10-16T09:27:12;97984.13;;;11.01;83.54
43741;BME280;29352;48.708;9.290;2022-10-16T09:29:40;97991.28;;;11.32;84.04
43741;BME280;29352;48.708;9.290;2022-10-16T09:32:18;97983.81;;;11.66;80.81
43741;BME280;29352;48.708;9.290;2022-10-16T09:34:50;97996.59;;;11.39;81.55
43741;BME280;29352;48.708;9.290;2022-10-16T09:37:22;97991.47;;;13.08;77.34
43741;BME280;29352;48.708;9.290;2022-10-16T09:39:54;97998.00;;;13.00;74.63
43741;BME280;29352;48.708;9.290;2022-10-16T09:42:24;97995.91;;;13.25;74.93
43741;BME280;29352;48.708;9.290;2022-10-16T09:44:56;98000.13;;;13.33;74.15
43741;BME280;29352;48.708;9.290;2022-10-16T09:47:28;97988.38;;;13.81;72.39
43741;BME280;29352;48.708;9.290;2022-10-16T09:50:02;97992.78;;;14.68;69.64
43741;BME280;29352;48.708;9.290;2022-10-16T09:52:31;97988.34;;;14.33;71.24
43741;BME280;29352;48.708;9.290;2022-10-16T09:55:13;97989.91;;;14.17;72.43
43741;BME280;29352;48.708;9.290;2022-10-16T09:57:50;97994.47;;;14.17;71.99
43741;BME280;29352;48.708;9.290;2022-10-16T10:00:17;97990.06;;;14.51;70.72
43741;BME280;29352;48.708;9.290;2022-10-16T10:02:44;97984.53;;;14.17;72.42
43741;BME280;29352;48.708;9.290;2022-10-16T10:05:20;97991.22;;;14.55;70.15
43741;BME280;29352;48.708;9.290;2022-10-16T10:07:58;97985.09;;;14.88;68.53
43741;BME280;29352;48.708;9.290;2022-10-16T10:10:29;97987.25;;;15.37;65.41
43741;BME280;29352;48.708;9.290;2022-10-16T10:12:57;97975.38;;;15.16;65.04
43741;BME280;29352;48.708;9.290;2022-10-16T10:15:25;97987.25;;;15.76;62.39
43741;BME280;29352;48.708;9.290;2022-10-16T10:17:58;97982.56;;;15.83;63.41
43741;BME280;29352;48.708;9.290;2022-10-16T10:20:29;97986.56;;;16.02;61.78
43741;BME280;29352;48.708;9.290;2022-10-16T10:23:00;97991.06;;;15.97;61.97
43741;BME280;29352;48.708;9.290;2022-10-16T10:28:55;97999.88;;;15.36;62.38
43741;BME280;29352;48.708;9.290;2022-10-16T10:31:54;97979.91;;;16.32;61.28
43741;BME280;29352;48.708;9.290;2022-10-16T10:35:01;97985.19;;;16.00;61.31
43741;BME280;29352;48.708;9.290;2022-10-16T10:38:01;97985.84;;;17.10;59.26
43741;BME280;29352;48.708;9.290;2022-10-16T10:44:07;97978.47;;;18.33;57.57
43741;BME280;29352;48.708;9.290;2022-10-16T10:46:50;97979.69;;;17.94;57.48
43741;BME280;29352;48.708;9.290;2022-10-16T10:49:41;97978.88;;;18.72;56.04
43741;BME280;29352;48.708;9.290;2022-10-16T11:06:40;97980.25;;;19.56;52.32
43741;BME280;29352;48.708;9.290;2022-10-16T11:09:44;97971.06;;;19.52;53.01
43741;BME280;29352;48.708;9.290;2022-10-16T11:12:17;97964.91;;;20.22;52.08
43741;BME280;29352;48.708;9.290;2022-10-16T11:15:35;97972.25;;;20.06;52.36
43741;BME280;29352;48.708;9.290;2022-10-16T11:17:54;97981.63;;;19.23;52.01
43741;BME280;29352;48.708;9.290;2022-10-16T11:20:37;97967.56;;;19.31;52.15
43741;BME280;29352;48.708;9.290;2022-10-16T11:26:04;97967.38;;;20.18;52.95
43741;BME280;29352;48.708;9.290;2022-10-16T11:28:42;97962.63;;;19.79;51.79
43741;BME280;29352;48.708;9.290;2022-10-16T11:31:37;97966.59;;;20.07;52.44
43741;BME280;29352;48.708;9.290;2022-10-16T11:34:28;97969.38;;;19.82;51.80
43741;BME280;29352;48.708;9.290;2022-10-16T11:37:19;97968.97;;;17.67;54.90
43741;BME280;29352;48.708;9.290;2022-10-16T11:39:54;97955.38;;;17.89;55.54
43741;BME280;29352;48.708;9.290;2022-10-16T11:42:37;97961.03;;;18.76;54.41
43741;BME280;29352;48.708;9.290;2022-10-16T11:45:08;97971.91;;;19.07;54.20
43741;BME280;29352;48.708;9.290;2022-10-16T11:48:13;97957.19;;;19.84;51.95
43741;BME280;29352;48.708;9.290;2022-10-16T11:53:56;97959.38;;;19.77;52.37
43741;BME280;29352;48.708;9.290;2022-10-16T11:56:31;97958.63;;;19.51;52.38
43741;BME280;29352;48.708;9.290;2022-10-16T11:59:28;97950.66;;;19.85;53.00
43741;BME280;29352;48.708;9.290;2022-10-16T12:02:28;97950.50;;;19.36;52.58
43741;BME280;29352;48.708;9.290;2022-10-16T12:08:12;97947.31;;;20.24;49.95
43741;BME280;29352;48.708;9.290;2022-10-16T12:10:45;97940.06;;;20.54;50.25
43741;BME280;29352;48.708;9.290;2022-10-16T12:18:36;97933.06;;;20.48;50.11
43741;BME280;29352;48.708;9.290;2022-10-16T12:21:02;97937.03;;;20.11;50.09
43741;BME280;29352;48.708;9.290;2022-10-16T12:23:55;97937.59;;;20.08;50.60
43741;BME280;29352;48.708;9.290;2022-10-16T12:26:37;97944.00;;;19.63;51.89
43741;BME280;29352;48.708;9.290;2022-10-16T12:32:04;97948.06;;;19.29;51.70
43741;BME280;29352;48.708;9.290;2022-10-16T12:34:42;97937.53;;;19.28;51.89
43741;BME280;29352;48.708;9.290;2022-10-16T12:37:31;97949.72;;;19.20;51.88
43741;BME280;29352;48.708;9.290;2022-10-16T12:40:04;97953.25;;;19.00;52.36
43741;BME280;29352;48.708;9.290;2022-10-16T12:42:48;97949.75;;;19.00;52.85
43741;BME280;29352;48.708;9.290;2022-10-16T12:45:33;97955.09;;;18.79;52.35
43741;BME280;29352;48.708;9.290;2022-10-16T12:48:02;97962.13;;;18.80;52.84
43741;BME280;29352;48.708;9.290;2022-10-16T12:50:35;97952.44;;;17.96;53.27
43741;BME280;29352;48.708;9.290;2022-10-16T12:53:17;97953.72;;;18.56;53.32
43741;BME280;29352;48.708;9.290;2022-10-16T12:56:04;97956.34;;;17.31;56.23
43741;BME280;29352;48.708;9.290;2022-10-16T12:59:01;97965.34;;;17.09;56.59
43741;BME280;29352;48.708;9.290;2022-10-16T13:10:30;97968.38;;;17.13;58.95
43741;BME280;29352;48.708;9.290;2022-10-16T13:13:46;97966.88;;;17.74;56.66
43741;BME280;29352;48.708;9.290;2022-10-16T13:20:31;97974.59;;;16.59;58.92
43741;BME280;29352;48.708;9.290;2022-10-16T13:23:21;97961.91;;;18.09;54.90
43741;BME280;29352;48.708;9.290;2022-10-16T13:26:06;97963.13;;;17.76;55.89
43741;BME280;29352;48.708;9.290;2022-10-16T13:28:52;97962.19;;;17.60;56.61
43741;BME280;29352;48.708;9.290;2022-10-16T13:31:23;97968.53;;;17.81;56.80
43741;BME280;29352;48.708;9.290;2022-10-16T13:33:54;97970.56;;;17.21;56.53
43741;BME280;29352;48.708;9.290;2022-10-16T13:36:28;97971.16;;;17.28;57.29
43741;BME280;29352;48.708;9.290;2022-10-16T13:39:10;97977.47;;;16.79;57.42
43741;BME280;29352;48.708;9.290;2022-10-16T13:41:42;97968.75;;;17.32;56.74
43741;BME280;29352;48.708;9.290;2022-10-16T13:44:19;97958.94;;;18.00;54.85
43741;BME280;29352;48.708;9.290;2022-10-16T13:46:45;97968.59;;;17.91;54.40
43741;BME280;29352;48.708;9.290;2022-10-16T13:49:16;97964.75;;;17.39;56.12
43741;BME280;29352;48.708;9.290;2022-10-16T13:52:00;97973.78;;;16.91;56.87
43741;BME280;29352;48.708;9.290;2022-10-16T13:54:27;97962.00;;;17.29;56.32
43741;BME280;29352;48.708;9.290;2022-10-16T13:56:54;97959.94;;;17.41;55.70
43741;BME280;29352;48.708;9.290;2022-10-16T13:59:32;97964.50;;;17.83;56.28
43741;BME280;29352;48.708;9.290;2022-10-16T14:02:27;97966.78;;;17.17;55.83
43741;BME280;29352;48.708;9.290;2022-10-16T14:04:57;97961.25;;;17.34;55.66
43741;BME280;29352;48.708;9.290;2022-10-16T14:07:29;97963.00;;;17.18;56.11
43741;BME280;29352;48.708;9.290;2022-10-16T14:10:05;97969.88;;;17.03;57.11
43741;BME280;29352;48.708;9.290;2022-10-16T14:13:02;97966.69;;;17.44;56.37
43741;BME280;29352;48.708;9.290;2022-10-16T14:15:33;97966.63;;;17.34;56.21
43741;BME280;29352;48.708;9.290;2022-10-16T14:18:02;97965.84;;;17.38;56.02
43741;BME280;29352;48.708;9.290;2022-10-16T14:20:31;97968.28;;;17.08;55.74
43741;BME280;29352;48.708;9.290;2022-10-16T14:23:29;97969.97;;;16.82;57.35
43741;BME280;29352;48.708;9.290;2022-10-16T14:28:36;97976.34;;;17.02;58.87
43741;BME280;29352;48.708;9.290;2022-10-16T14:31:26;97972.34;;;17.42;57.07
43741;BME280;29352;48.708;9.290;2022-10-16T14:33:52;97975.94;;;17.16;55.75
43741;BME280;29352;48.708;9.290;2022-10-16T14:36:19;97977.41;;;17.34;56.90
43741;BME280;29352;48.708;9.290;2022-10-16T14:41:43;97977.38;;;17.29;58.14
43741;BME280;29352;48.708;9.290;2022-10-16T14:44:12;97976.19;;;17.52;56.67
43741;BME280;29352;48.708;9.290;2022-10-16T14:46:41;97978.81;;;17.41;57.41
43741;BME280;29352;48.708;9.290;2022-10-16T14:51:33;97972.53;;;17.31;57.53
43741;BME280;29352;48.708;9.290;2022-10-16T14:53:59;97978.13;;;17.61;56.53